createdAt,value
2023-05-13T00:00:41.813Z,7.10
2023-05-13T00:03:08.491Z,7.40
2023-05-13T00:05:35.342Z,7.90
2023-05-13T00:08:06.982Z,6.90
2023-05-13T00:10:34.469Z,7.30
2023-05-13T00:13:01.165Z,6.90
2023-05-13T00:15:28.056Z,7.00
2023-05-13T00:17:54.713Z,6.60
2023-05-13T00:20:21.703Z,7.00
2023-05-13T00:22:48.554Z,6.40
2023-05-13T00:25:15.153Z,6.40
2023-05-13T00:27:41.767Z,6.30
2023-05-13T00:30:09.455Z,7.30
2023-05-13T00:32:36.460Z,7.90
2023-05-13T00:35:03.993Z,8.70
2023-05-13T00:37:30.602Z,8.80
2023-05-13T00:39:57.232Z,9.70
2023-05-13T00:42:24.365Z,9.70
2023-05-13T00:44:51.893Z,9.40
2023-05-13T00:47:18.546Z,9.40
2023-05-13T00:49:45.174Z,8.50
2023-05-13T00:52:11.771Z,7.40
2023-05-13T00:54:38.393Z,7.10
2023-05-13T00:57:05.342Z,8.70
2023-05-13T00:59:32.028Z,8.40
2023-05-13T01:02:14.605Z,7.30
2023-05-13T01:05:02.935Z,8.20
2023-05-13T01:07:41.739Z,7.60
2023-05-13T01:10:25.772Z,8.40
2023-05-13T01:12:56.867Z,8.20
2023-05-13T01:15:27.186Z,8.30
2023-05-13T01:17:55.495Z,8.10
2023-05-13T01:20:24.016Z,8.20
2023-05-13T01:22:51.391Z,8.30
2023-05-13T01:27:45.833Z,8.20
2023-05-13T01:32:39.912Z,8.00
2023-05-13T01:35:07.499Z,8.20
2023-05-13T01:37:34.784Z,8.20
2023-05-13T01:40:02.491Z,8.70
2023-05-13T01:42:30.724Z,7.80
2023-05-13T01:44:57.902Z,9.00
2023-05-13T01:47:24.552Z,9.40
2023-05-13T01:49:51.324Z,8.10
2023-05-13T01:52:18.077Z,8.60
2023-05-13T01:54:45.309Z,7.90
2023-05-13T01:57:13.554Z,7.90
2023-05-13T01:59:40.217Z,8.70
2023-05-13T02:02:06.878Z,7.90
2023-05-13T02:04:33.630Z,9.20
2023-05-13T02:07:00.637Z,8.50
2023-05-13T02:09:29.388Z,9.20
2023-05-13T02:11:56.006Z,8.60
2023-05-13T02:14:22.613Z,9.60
2023-05-13T02:16:49.450Z,9.70
2023-05-13T02:19:16.224Z,9.30
2023-05-13T02:21:43.791Z,8.80
2023-05-13T02:24:10.619Z,8.90
2023-05-13T02:26:37.329Z,8.80
2023-05-13T02:29:04.011Z,8.30
2023-05-13T02:31:31.152Z,8.90
2023-05-13T02:33:57.774Z,8.40
2023-05-13T02:36:24.818Z,8.90
2023-05-13T02:38:52.076Z,8.90
2023-05-13T02:41:19.320Z,8.10
2023-05-13T02:43:47.479Z,8.60
2023-05-13T02:46:15.398Z,8.50
2023-05-13T02:48:44.116Z,8.30
2023-05-13T02:51:10.933Z,8.50
2023-05-13T02:53:38.196Z,8.30
2023-05-13T02:56:05.811Z,8.80
2023-05-13T02:58:32.432Z,8.40
2023-05-13T03:00:59.348Z,8.70
2023-05-13T03:03:26.320Z,8.10
2023-05-13T03:05:53.137Z,9.20
2023-05-13T03:08:19.762Z,8.70
2023-05-13T03:10:46.346Z,9.50
2023-05-13T03:13:12.949Z,8.30
2023-05-13T03:15:40.535Z,8.10
2023-05-13T03:18:09.287Z,9.10
2023-05-13T03:20:36.081Z,8.50
2023-05-13T03:23:03.057Z,8.90
2023-05-13T03:25:30.375Z,8.60
2023-05-13T03:30:26.025Z,9.50
2023-05-13T03:33:03.226Z,9.20
2023-05-13T03:35:30.024Z,8.90
2023-05-13T03:37:57.124Z,8.90
2023-05-13T03:40:24.281Z,9.60
2023-05-13T03:42:51.520Z,8.80
2023-05-13T03:45:18.789Z,10.00
2023-05-13T03:47:47.585Z,9.50
2023-05-13T03:50:15.646Z,9.30
2023-05-13T03:52:45.486Z,9.00
2023-05-13T03:55:15.184Z,9.40
2023-05-13T03:57:44.945Z,10.00
2023-05-13T04:00:12.696Z,9.20
2023-05-13T04:02:42.520Z,8.70
2023-05-13T04:07:36.507Z,8.80
2023-05-13T04:10:03.369Z,8.20
2023-05-13T04:12:31.015Z,7.90
2023-05-13T04:14:57.620Z,8.40
2023-05-13T04:17:24.407Z,8.50
2023-05-13T04:19:54.904Z,7.80
2023-05-13T04:22:21.886Z,7.80
2023-05-13T04:24:52.101Z,7.80
2023-05-13T04:27:18.907Z,7.50
2023-05-13T04:29:46.090Z,7.30
2023-05-13T04:32:16.242Z,7.20
2023-05-13T04:34:43.376Z,6.50
2023-05-13T04:37:10.004Z,6.50
2023-05-13T04:39:36.586Z,7.10
2023-05-13T04:42:03.482Z,6.50
2023-05-13T04:44:33.233Z,7.60
2023-05-13T04:47:00.051Z,6.60
2023-05-13T04:49:26.914Z,6.80
2023-05-13T04:51:54.605Z,7.40
2023-05-13T04:54:21.936Z,6.20
2023-05-13T04:56:48.964Z,6.00
2023-05-13T04:59:16.244Z,7.30
2023-05-13T05:01:43.301Z,6.90
2023-05-13T05:04:10.321Z,7.00
2023-05-13T05:06:37.947Z,6.20
2023-05-13T05:09:04.816Z,6.50
2023-05-13T05:11:31.530Z,7.00
2023-05-13T05:13:58.146Z,6.80
2023-05-13T05:16:25.298Z,6.70
2023-05-13T05:18:51.997Z,5.90
2023-05-13T05:23:46.580Z,5.70
2023-05-13T05:26:13.241Z,5.20
2023-05-13T05:28:43.180Z,5.10
2023-05-13T05:31:10.112Z,5.20
2023-05-13T05:33:37.239Z,5.10
2023-05-13T05:36:06.179Z,5.20
2023-05-13T05:38:33.427Z,4.80
2023-05-13T05:41:00.735Z,5.20
2023-05-13T05:43:27.778Z,5.30
2023-05-13T05:45:54.506Z,4.70
2023-05-13T05:48:22.243Z,4.90
2023-05-13T05:50:49.429Z,5.40
2023-05-13T05:53:22.988Z,5.20
2023-05-13T05:55:51.631Z,5.70
2023-05-13T05:58:19.883Z,5.20
2023-05-13T06:00:47.131Z,4.80
2023-05-13T06:03:14.018Z,4.30
2023-05-13T06:05:40.924Z,4.20
2023-05-13T06:08:07.550Z,4.10
2023-05-13T06:10:35.401Z,4.40
2023-05-13T06:13:03.220Z,4.10
2023-05-13T06:15:30.255Z,3.90
2023-05-13T06:17:57.034Z,3.50
2023-05-13T06:20:24.023Z,3.80
2023-05-13T06:22:50.946Z,4.10
2023-05-13T06:25:18.083Z,4.50
2023-05-13T06:27:44.673Z,3.70
2023-05-13T06:30:13.269Z,4.10
2023-05-13T06:32:53.588Z,3.50
2023-05-13T06:35:27.375Z,3.20
2023-05-13T06:37:54.223Z,3.60
2023-05-13T06:40:21.171Z,3.50
2023-05-13T06:42:48.246Z,2.90
2023-05-13T06:45:23.365Z,2.70
2023-05-13T06:47:51.551Z,2.60
2023-05-13T06:50:18.860Z,2.30
2023-05-13T06:52:46.913Z,2.70
2023-05-13T06:55:13.591Z,3.40
2023-05-13T06:57:43.497Z,3.00
2023-05-13T07:00:11.068Z,2.70
2023-05-13T07:02:37.786Z,2.70
2023-05-13T07:05:05.444Z,2.40
2023-05-13T07:09:58.658Z,2.50
2023-05-13T07:12:25.311Z,2.70
2023-05-13T07:14:52.195Z,2.60
2023-05-13T07:17:18.815Z,2.30
2023-05-13T07:19:45.603Z,2.20
2023-05-13T07:22:12.239Z,1.90
2023-05-13T07:24:39.034Z,2.10
2023-05-13T07:27:05.872Z,2.40
2023-05-13T07:29:33.462Z,2.10
2023-05-13T07:32:06.820Z,2.40
2023-05-13T07:34:33.466Z,1.80
2023-05-13T07:37:00.144Z,1.80
2023-05-13T07:39:27.376Z,2.00
2023-05-13T07:41:54.212Z,1.90
2023-05-13T07:44:21.068Z,2.40
2023-05-13T07:46:48.663Z,2.70
2023-05-13T07:49:15.528Z,2.10
2023-05-13T07:51:42.399Z,2.10
2023-05-13T07:54:09.379Z,2.20
2023-05-13T07:56:38.111Z,2.70
2023-05-13T07:59:04.995Z,1.90
2023-05-13T08:01:31.661Z,1.90
2023-05-13T08:03:58.549Z,2.50
2023-05-13T08:06:25.374Z,2.00
2023-05-13T08:08:52.071Z,1.80
2023-05-13T08:11:18.682Z,2.20
2023-05-13T08:13:45.402Z,4.20
2023-05-13T08:16:12.221Z,4.40
2023-05-13T08:18:38.977Z,2.40
2023-05-13T08:21:05.659Z,4.30
2023-05-13T08:23:44.234Z,2.00
2023-05-13T08:26:12.076Z,2.20
2023-05-13T08:28:38.792Z,2.10
2023-05-13T08:31:05.395Z,2.10
2023-05-13T08:33:32.467Z,1.90
2023-05-13T08:35:59.695Z,2.00
2023-05-13T08:38:26.402Z,2.60
2023-05-13T08:40:53.385Z,2.30
2023-05-13T08:43:20.298Z,2.50
2023-05-13T08:45:47.936Z,2.10
2023-05-13T08:48:15.517Z,2.10
2023-05-13T08:53:10.570Z,1.90
2023-05-13T08:55:39.336Z,2.00
2023-05-13T08:58:08.362Z,2.10
2023-05-13T09:00:35.362Z,1.70
2023-05-13T09:03:03.011Z,2.30
2023-05-13T09:05:32.051Z,1.90
2023-05-13T09:07:58.825Z,2.10
2023-05-13T09:10:25.444Z,2.30
2023-05-13T09:12:53.756Z,2.30
2023-05-13T09:15:24.691Z,2.40
2023-05-13T09:18:05.803Z,2.30
2023-05-13T09:20:33.157Z,2.20
2023-05-13T09:23:05.123Z,2.50
2023-05-13T09:25:32.064Z,2.90
2023-05-13T09:28:00.311Z,2.20
2023-05-13T09:30:46.800Z,2.00
2023-05-13T09:33:19.804Z,2.30
2023-05-13T09:35:52.965Z,2.70
2023-05-13T09:38:19.882Z,2.90
2023-05-13T09:40:59.718Z,2.30
2023-05-13T09:43:28.179Z,2.50
2023-05-13T09:46:00.912Z,2.40
2023-05-13T09:48:28.902Z,2.30
2023-05-13T09:50:57.906Z,2.10
2023-05-13T09:53:26.015Z,2.40
2023-05-13T09:55:56.884Z,2.40
2023-05-13T09:58:31.228Z,2.10
2023-05-13T10:00:58.209Z,2.40
2023-05-13T10:03:24.879Z,2.10
2023-05-13T10:05:51.817Z,1.80
2023-05-13T10:08:18.458Z,2.00
2023-05-13T10:10:48.028Z,1.80
2023-05-13T10:13:16.138Z,1.90
2023-05-13T10:15:52.664Z,2.00
2023-05-13T10:18:20.211Z,1.90
2023-05-13T10:20:47.077Z,2.40
2023-05-13T10:23:13.773Z,2.30
2023-05-13T10:25:40.385Z,2.40
2023-05-13T10:28:07.037Z,2.10
2023-05-13T10:30:35.913Z,2.60
2023-05-13T10:33:03.168Z,2.50
2023-05-13T10:35:34.607Z,2.20
2023-05-13T10:38:08.136Z,1.80
2023-05-13T10:40:43.385Z,1.80
2023-05-13T10:43:16.000Z,1.60
2023-05-13T10:45:50.095Z,1.90
2023-05-13T10:48:17.689Z,1.80
2023-05-13T10:50:52.276Z,1.90
2023-05-13T10:53:21.781Z,1.70
2023-05-13T10:55:53.185Z,1.70
2023-05-13T10:58:22.441Z,1.60
2023-05-13T11:00:50.934Z,1.50
2023-05-13T11:03:17.744Z,2.00
2023-05-13T11:05:47.081Z,2.10
2023-05-13T11:08:36.162Z,2.00
2023-05-13T11:11:02.768Z,1.30
2023-05-13T11:13:36.952Z,1.60
2023-05-13T11:16:05.885Z,1.60
2023-05-13T11:18:33.454Z,1.70
2023-05-13T11:21:07.197Z,1.70
2023-05-13T11:23:37.437Z,2.00
2023-05-13T11:26:16.228Z,2.00
2023-05-13T11:29:12.792Z,1.70
2023-05-13T11:31:48.630Z,1.60
2023-05-13T11:34:18.916Z,1.60
2023-05-13T11:36:47.557Z,1.30
2023-05-13T11:39:22.591Z,1.50
2023-05-13T11:41:50.485Z,1.60
2023-05-13T11:44:21.863Z,1.70
2023-05-13T11:47:02.212Z,1.50
2023-05-13T11:49:35.000Z,1.50
2023-05-13T11:52:03.044Z,2.20
2023-05-13T11:54:29.733Z,1.70
2023-05-13T11:56:56.766Z,1.50
2023-05-13T11:59:24.290Z,1.80
2023-05-13T12:04:29.966Z,1.90
2023-05-13T12:06:57.309Z,1.80
2023-05-13T12:11:52.702Z,1.80
2023-05-13T12:14:20.019Z,1.60
2023-05-13T12:16:46.631Z,2.00
2023-05-13T12:19:13.282Z,1.60
2023-05-13T12:21:39.948Z,1.50
2023-05-13T12:24:19.586Z,1.30
2023-05-13T12:26:46.195Z,1.60
2023-05-13T12:29:12.844Z,1.70
2023-05-13T12:31:41.824Z,1.40
2023-05-13T12:34:08.464Z,1.40
2023-05-13T12:36:38.617Z,1.60
2023-05-13T12:39:09.701Z,1.40
2023-05-13T12:41:41.010Z,1.70
2023-05-13T12:44:13.508Z,1.80
2023-05-13T12:46:59.385Z,1.60
2023-05-13T12:49:26.350Z,1.50
2023-05-13T12:51:52.961Z,1.60
2023-05-13T12:54:19.612Z,1.60
2023-05-13T12:56:46.558Z,2.60
2023-05-13T12:59:14.582Z,2.10
2023-05-13T13:01:42.862Z,2.00
2023-05-13T13:04:10.073Z,1.90
2023-05-13T13:06:36.984Z,2.10
2023-05-13T13:09:03.629Z,1.90
2023-05-13T13:11:30.273Z,1.70
2023-05-13T13:13:56.950Z,1.90
2023-05-13T13:16:23.781Z,2.00
2023-05-13T13:18:53.230Z,1.70
2023-05-13T13:21:21.584Z,1.50
2023-05-13T13:23:48.166Z,2.50
2023-05-13T13:26:14.753Z,1.90
2023-05-13T13:28:41.367Z,2.00
2023-05-13T13:31:08.139Z,1.80
2023-05-13T13:33:34.907Z,1.60
2023-05-13T13:36:01.642Z,1.80
2023-05-13T13:38:28.229Z,2.30
2023-05-13T13:40:54.809Z,1.90
2023-05-13T13:43:21.457Z,1.90
2023-05-13T13:45:48.101Z,1.60
2023-05-13T13:48:14.923Z,3.00
2023-05-13T13:50:41.736Z,1.80
2023-05-13T13:53:08.359Z,1.50
2023-05-13T13:55:34.996Z,1.80
2023-05-13T13:58:01.748Z,1.90
2023-05-13T14:00:28.574Z,1.80
2023-05-13T14:02:55.449Z,1.80
2023-05-13T14:05:22.374Z,1.90
2023-05-13T14:07:51.958Z,1.70
2023-05-13T14:10:18.578Z,2.00
2023-05-13T14:12:45.618Z,1.60
2023-05-13T14:15:12.231Z,1.80
2023-05-13T14:17:38.950Z,1.80
2023-05-13T14:20:06.842Z,1.70
2023-05-13T14:22:33.455Z,2.00
2023-05-13T14:25:00.237Z,1.80
2023-05-13T14:27:27.004Z,1.80
2023-05-13T14:29:53.632Z,1.70
2023-05-13T14:32:20.317Z,1.60
2023-05-13T14:34:46.918Z,1.40
2023-05-13T14:37:13.530Z,1.90
2023-05-13T14:39:40.139Z,1.70
2023-05-13T14:42:07.031Z,1.70
2023-05-13T14:44:33.801Z,2.20
2023-05-13T14:47:01.333Z,1.90
2023-05-13T14:49:28.527Z,1.70
2023-05-13T14:51:55.249Z,1.80
2023-05-13T14:54:22.138Z,2.00
2023-05-13T14:56:48.772Z,2.00
2023-05-13T14:59:15.557Z,2.00
2023-05-13T15:01:42.614Z,1.80
2023-05-13T15:04:09.419Z,1.80
2023-05-13T15:06:36.881Z,1.70
2023-05-13T15:11:30.443Z,2.20
2023-05-13T15:13:57.112Z,1.70
2023-05-13T15:16:23.794Z,1.70
2023-05-13T15:18:50.767Z,1.70
2023-05-13T15:21:17.835Z,1.60
2023-05-13T15:23:45.177Z,1.70
2023-05-13T15:28:38.669Z,1.70
2023-05-13T15:31:05.972Z,1.90
2023-05-13T15:33:32.794Z,1.30
2023-05-13T15:36:00.209Z,1.50
2023-05-13T15:38:27.459Z,1.50
2023-05-13T15:40:54.171Z,1.60
2023-05-13T15:43:20.937Z,1.30
2023-05-13T15:45:47.691Z,1.50
2023-05-13T15:48:14.902Z,1.50
2023-05-13T15:50:41.804Z,1.90
2023-05-13T15:53:08.512Z,1.60
2023-05-13T15:55:37.008Z,1.40
2023-05-13T15:58:03.703Z,1.80
2023-05-13T16:00:31.070Z,1.60
2023-05-13T16:05:24.739Z,1.50
2023-05-13T16:07:51.376Z,1.50
2023-05-13T16:10:18.092Z,1.50
2023-05-13T16:12:44.984Z,1.50
2023-05-13T16:15:11.881Z,1.70
2023-05-13T16:17:38.558Z,1.60
2023-05-13T16:20:06.381Z,2.40
2023-05-13T16:22:34.802Z,1.70
2023-05-13T16:25:05.650Z,1.70
2023-05-13T16:27:32.517Z,1.70
2023-05-13T16:29:59.670Z,2.10
2023-05-13T16:32:26.562Z,2.10
2023-05-13T16:34:53.209Z,2.00
2023-05-13T16:37:19.841Z,1.90
2023-05-13T16:39:46.530Z,2.30
2023-05-13T16:42:13.118Z,2.40
2023-05-13T16:44:39.799Z,2.10
2023-05-13T16:47:07.075Z,2.10
2023-05-13T16:49:33.779Z,1.90
2023-05-13T16:52:00.364Z,2.50
2023-05-13T16:54:26.957Z,2.00
2023-05-13T16:56:53.541Z,2.20
2023-05-13T16:59:22.156Z,2.10
2023-05-13T17:01:49.044Z,2.10
2023-05-13T17:04:16.177Z,3.40
2023-05-13T17:06:43.179Z,3.70
2023-05-13T17:09:10.067Z,3.40
2023-05-13T17:11:36.814Z,4.10
2023-05-13T17:14:04.642Z,3.50
2023-05-13T17:16:31.499Z,4.00
2023-05-13T17:18:59.437Z,4.40
2023-05-13T17:21:26.361Z,4.30
2023-05-13T17:23:53.503Z,3.20
2023-05-13T17:26:22.157Z,2.50
2023-05-13T17:28:49.702Z,3.20
2023-05-13T17:31:16.591Z,3.30
2023-05-13T17:33:43.536Z,3.70
2023-05-13T17:36:10.902Z,3.30
2023-05-13T17:41:04.798Z,5.50
2023-05-13T17:43:31.398Z,5.20
2023-05-13T17:45:58.146Z,6.30
2023-05-13T17:48:25.790Z,5.50
2023-05-13T17:50:52.856Z,6.40
2023-05-13T17:53:19.992Z,5.50
2023-05-13T17:55:48.519Z,4.60
2023-05-13T17:58:15.997Z,4.80
2023-05-13T18:03:09.406Z,5.30
2023-05-13T18:05:36.260Z,4.90
2023-05-13T18:08:02.984Z,5.40
2023-05-13T18:10:29.570Z,5.20
2023-05-13T18:12:56.164Z,6.20
2023-05-13T18:15:22.769Z,8.60
2023-05-13T18:17:49.964Z,8.40
2023-05-13T18:20:17.963Z,9.10
2023-05-13T18:22:44.638Z,8.40
2023-05-13T18:25:11.311Z,9.40
2023-05-13T18:27:37.972Z,8.50
2023-05-13T18:30:06.470Z,8.80
2023-05-13T18:32:33.150Z,9.30
2023-05-13T18:34:59.950Z,8.30
2023-05-13T18:37:26.654Z,8.40
2023-05-13T18:39:53.263Z,8.80
2023-05-13T18:42:19.874Z,8.90
2023-05-13T18:44:46.559Z,9.70
2023-05-13T18:47:13.255Z,10.00
2023-05-13T18:49:39.933Z,10.70
2023-05-13T18:52:07.219Z,9.10
2023-05-13T18:54:33.821Z,8.10
2023-05-13T18:57:00.489Z,10.00
2023-05-13T18:59:27.203Z,11.00
2023-05-13T19:01:53.889Z,10.30
2023-05-13T19:04:20.689Z,13.30
2023-05-13T19:06:47.708Z,14.20
2023-05-13T19:09:14.602Z,14.40
2023-05-13T19:11:41.294Z,17.50
2023-05-13T19:14:07.876Z,13.90
2023-05-13T19:16:34.531Z,13.40
2023-05-13T19:19:01.244Z,13.60
2023-05-13T19:21:28.251Z,14.10
2023-05-13T19:23:54.859Z,15.30
2023-05-13T19:26:21.506Z,16.90
2023-05-13T19:28:48.739Z,17.80
2023-05-13T19:31:15.559Z,17.50
2023-05-13T19:33:44.625Z,17.40
2023-05-13T19:36:12.735Z,17.70
2023-05-13T19:38:39.418Z,18.70
2023-05-13T19:41:06.032Z,18.00
2023-05-13T19:43:32.651Z,17.20
2023-05-13T19:45:59.338Z,16.50
2023-05-13T19:48:27.709Z,17.30
2023-05-13T19:50:57.174Z,18.10
2023-05-13T19:53:23.845Z,18.10
2023-05-13T19:55:50.585Z,19.20
2023-05-13T19:58:17.734Z,17.20
2023-05-13T20:00:44.323Z,16.50
2023-05-13T20:03:11.244Z,16.90
2023-05-13T20:05:39.671Z,16.40
2023-05-13T20:08:07.142Z,17.10
2023-05-13T20:10:37.100Z,17.50
2023-05-13T20:13:04.874Z,16.40
2023-05-13T20:15:31.915Z,15.90
2023-05-13T20:17:58.612Z,15.80
2023-05-13T20:20:25.413Z,16.90
2023-05-13T20:22:52.272Z,16.10
2023-05-13T20:25:18.997Z,16.70
2023-05-13T20:27:45.750Z,14.50
2023-05-13T20:30:13.170Z,15.20
2023-05-13T20:32:39.961Z,14.40
2023-05-13T20:35:07.695Z,16.10
2023-05-13T20:37:34.755Z,13.00
2023-05-13T20:40:01.480Z,12.00
2023-05-13T20:42:28.073Z,11.90
2023-05-13T20:44:54.685Z,12.60
2023-05-13T20:47:21.572Z,10.90
2023-05-13T20:49:48.187Z,11.20
2023-05-13T20:52:14.881Z,11.00
2023-05-13T20:54:41.630Z,11.50
2023-05-13T20:57:08.293Z,11.40
2023-05-13T20:59:35.114Z,11.90
2023-05-13T21:02:01.740Z,11.20
2023-05-13T21:04:28.384Z,11.90
2023-05-13T21:06:55.004Z,11.60
2023-05-13T21:09:21.880Z,12.30
2023-05-13T21:11:49.054Z,12.40
2023-05-13T21:14:15.671Z,12.00
2023-05-13T21:16:42.670Z,12.30
2023-05-13T21:19:18.161Z,12.20
2023-05-13T21:21:44.825Z,11.70
2023-05-13T21:24:11.635Z,12.20
2023-05-13T21:26:38.219Z,13.20
2023-05-13T21:29:04.820Z,12.90
2023-05-13T21:31:31.567Z,12.90
2023-05-13T21:33:58.257Z,12.50
2023-05-13T21:36:24.934Z,14.10
2023-05-13T21:38:51.970Z,13.20
2023-05-13T21:41:22.832Z,13.10
2023-05-13T21:43:49.429Z,12.50
2023-05-13T21:46:16.046Z,12.90
2023-05-13T21:48:42.720Z,12.90
2023-05-13T21:51:09.364Z,12.90
2023-05-13T21:53:35.987Z,12.10
2023-05-13T21:56:03.072Z,12.90
2023-05-13T21:58:29.683Z,12.00
2023-05-13T22:00:56.743Z,11.50
2023-05-13T22:03:23.582Z,11.20
2023-05-13T22:05:50.336Z,11.70
2023-05-13T22:08:16.977Z,10.10
2023-05-13T22:10:44.132Z,10.70
2023-05-13T22:13:11.003Z,11.70
2023-05-13T22:15:37.677Z,10.90
2023-05-13T22:18:04.711Z,12.70
2023-05-13T22:20:31.523Z,11.70
2023-05-13T22:22:58.163Z,11.70
2023-05-13T22:25:24.921Z,12.20
2023-05-13T22:27:51.502Z,12.20
2023-05-13T22:30:18.597Z,12.30
2023-05-13T22:32:45.457Z,11.90
2023-05-13T22:35:12.269Z,12.00
2023-05-13T22:37:38.852Z,12.20
2023-05-13T22:40:06.589Z,12.10
2023-05-13T22:42:33.209Z,12.30
2023-05-13T22:44:59.818Z,13.00
2023-05-13T22:47:26.506Z,12.40
2023-05-13T22:49:53.200Z,12.00
2023-05-13T22:52:19.976Z,12.50
2023-05-13T22:54:46.656Z,12.50
2023-05-13T22:57:13.240Z,12.00
2023-05-13T22:59:39.857Z,12.90
2023-05-13T23:02:06.587Z,12.10
2023-05-13T23:04:33.491Z,14.20
2023-05-13T23:07:00.560Z,13.60
2023-05-13T23:09:27.156Z,14.00
2023-05-13T23:11:54.008Z,14.40
2023-05-13T23:14:20.762Z,14.60
2023-05-13T23:16:47.553Z,14.90
2023-05-13T23:19:14.243Z,14.50
2023-05-13T23:21:40.937Z,14.80
2023-05-13T23:24:07.586Z,15.10
2023-05-13T23:26:34.247Z,15.80
2023-05-13T23:29:00.827Z,16.60
2023-05-13T23:31:27.449Z,15.80
2023-05-13T23:33:54.080Z,16.50
2023-05-13T23:36:20.658Z,17.30
2023-05-13T23:38:47.234Z,16.40
2023-05-13T23:41:13.948Z,15.60
2023-05-13T23:43:40.563Z,17.10
2023-05-13T23:46:07.240Z,16.40
2023-05-13T23:48:34.000Z,17.00
2023-05-13T23:51:00.761Z,15.60
2023-05-13T23:53:27.421Z,16.20
2023-05-13T23:55:54.027Z,16.70
2023-05-13T23:58:20.614Z,16.20
